Time;durP1;ratioP1;P1;durP2;ratioP2;P2;SDS_P1;SDS_P2;PMS_P1;PMS_P2;Temp;Humidity;BMP_temperature;BMP_pressure;BME280_temperature;BME280_humidity;BME280_pressure;Samples;Min_cycle;Max_cycle;Signal;HPM_P1;HPM_P2
2024/03/22 00:00:32;;;;;;;14.45;8.25;;;;;;;;;;5000841;28;20045;-83
2024/03/22 00:02:58;;;;;;;11.30;7.60;;;;;;;;;;5016929;28;20296;-83
2024/03/22 00:05:23;;;;;;;13.07;8.88;;;;;;;;;;5015673;28;20136;-82
2024/03/22 00:07:49;;;;;;;17.48;9.63;;;;;;;;;;4999472;28;20112;-83
2024/03/22 00:10:15;;;;;;;12.52;9.02;;;;;;;;;;5001799;28;20057;-83
2024/03/22 00:12:40;;;;;;;14.27;10.13;;;;;;;;;;5000155;28;20116;-81
2024/03/22 00:15:06;;;;;;;12.02;8.52;;;;;;;;;;4998662;28;20042;-82
2024/03/22 00:17:33;;;;;;;13.73;9.88;;;;;;;;;;5015703;28;20110;-82
2024/03/22 00:19:58;;;;;;;13.75;8.85;;;;;;;;;;5000211;28;20100;-82
2024/03/22 00:22:24;;;;;;;14.25;9.35;;;;;;;;;;5015981;28;20058;-82
2024/03/22 00:24:50;;;;;;;13.10;9.80;;;;;;;;;;5014432;28;20089;-81
2024/03/22 00:27:15;;;;;;;13.25;9.05;;;;;;;;;;5048124;28;20049;-82
2024/03/22 00:29:41;;;;;;;11.30;7.72;;;;;;;;;;5032088;28;20090;-81
2024/03/22 00:32:07;;;;;;;12.20;7.85;;;;;;;;;;5016293;28;20046;-81
2024/03/22 00:34:34;;;;;;;10.75;7.53;;;;;;;;;;5044000;28;20048;-80
2024/03/22 00:36:59;;;;;;;11.50;7.68;;;;;;;;;;5039245;28;20339;-82
2024/03/22 00:39:28;;;;;;;12.68;7.65;;;;;;;;;;5053110;28;20033;-81
2024/03/22 00:41:53;;;;;;;10.45;7.88;;;;;;;;;;5027943;28;20050;-81
2024/03/22 00:44:19;;;;;;;11.88;7.85;;;;;;;;;;5039408;28;20062;-82
2024/03/22 00:46:45;;;;;;;13.68;7.70;;;;;;;;;;5008449;28;20189;-83
2024/03/22 00:49:10;;;;;;;12.20;8.55;;;;;;;;;;5001055;28;20119;-83
2024/03/22 00:51:36;;;;;;;10.88;7.97;;;;;;;;;;5004785;28;20053;-83
2024/03/22 00:54:01;;;;;;;14.30;8.23;;;;;;;;;;5019938;28;20782;-83
2024/03/22 00:56:27;;;;;;;18.42;9.73;;;;;;;;;;5022973;28;20067;-83
2024/03/22 00:58:53;;;;;;;19.70;11.38;;;;;;;;;;5011853;28;20508;-82
2024/03/22 01:01:18;;;;;;;17.23;11.23;;;;;;;;;;5020406;28;20057;-83
2024/03/22 01:03:44;;;;;;;15.05;10.35;;;;;;;;;;5011951;28;20057;-83
2024/03/22 01:06:09;;;;;;;16.70;9.85;;;;;;;;;;5021891;28;20049;-83
2024/03/22 01:08:35;;;;;;;19.33;10.73;;;;;;;;;;5022161;28;20065;-83
2024/03/22 01:11:01;;;;;;;13.07;8.50;;;;;;;;;;5022360;28;20092;-82
2024/03/22 01:13:26;;;;;;;12.93;8.40;;;;;;;;;;5029368;28;20428;-83
2024/03/22 01:15:52;;;;;;;10.20;7.40;;;;;;;;;;5004369;28;20046;-83
2024/03/22 01:18:17;;;;;;;14.00;7.95;;;;;;;;;;5003958;28;20054;-83
2024/03/22 01:20:43;;;;;;;11.07;7.50;;;;;;;;;;5023251;28;20049;-84
2024/03/22 01:23:08;;;;;;;13.98;7.93;;;;;;;;;;5023452;28;20049;-83
2024/03/22 01:25:34;;;;;;;12.57;7.88;;;;;;;;;;5003643;28;20133;-86
2024/03/22 01:28:00;;;;;;;13.00;7.90;;;;;;;;;;5000514;28;20282;-87
2024/03/22 01:30:28;;;;;;;9.35;6.95;;;;;;;;;;5003272;28;20058;-82
2024/03/22 01:32:54;;;;;;;12.00;7.68;;;;;;;;;;5022992;28;20057;-83
2024/03/22 01:35:20;;;;;;;15.88;9.05;;;;;;;;;;5023313;28;20103;-84
2024/03/22 01:37:45;;;;;;;15.73;8.55;;;;;;;;;;5023087;28;20077;-83
2024/03/22 01:40:11;;;;;;;12.70;8.15;;;;;;;;;;5022509;28;20054;-83
2024/03/22 01:42:37;;;;;;;10.43;7.72;;;;;;;;;;5039380;28;20046;-81
2024/03/22 01:45:03;;;;;;;13.68;7.53;;;;;;;;;;5009669;28;20164;-83
2024/03/22 01:47:29;;;;;;;11.85;7.82;;;;;;;;;;5020119;28;20053;-84
2024/03/22 01:49:55;;;;;;;13.00;7.65;;;;;;;;;;5019480;28;20057;-83
2024/03/22 01:52:20;;;;;;;12.13;7.70;;;;;;;;;;5033048;28;20057;-84
2024/03/22 01:54:46;;;;;;;13.95;7.95;;;;;;;;;;5034386;28;20103;-80
2024/03/22 01:57:11;;;;;;;14.23;9.20;;;;;;;;;;5019059;28;20152;-84
2024/03/22 01:59:37;;;;;;;13.85;8.52;;;;;;;;;;5054647;28;20045;-84
2024/03/22 02:02:03;;;;;;;12.77;8.30;;;;;;;;;;5023276;28;20097;-83
2024/03/22 02:04:28;;;;;;;18.55;9.55;;;;;;;;;;5018509;28;20064;-83
2024/03/22 02:06:54;;;;;;;20.85;9.55;;;;;;;;;;5020201;28;20523;-81
2024/03/22 02:09:20;;;;;;;17.63;9.25;;;;;;;;;;5020793;28;20056;-82
2024/03/22 02:11:46;;;;;;;16.30;8.77;;;;;;;;;;5000789;28;20091;-82
2024/03/22 02:14:12;;;;;;;17.73;10.23;;;;;;;;;;4999885;28;20041;-82
2024/03/22 02:16:39;;;;;;;13.23;8.60;;;;;;;;;;5016596;28;20049;-83
2024/03/22 02:19:05;;;;;;;12.05;8.15;;;;;;;;;;5035152;28;20419;-84
2024/03/22 02:21:30;;;;;;;14.05;8.73;;;;;;;;;;5039281;28;20087;-82
2024/03/22 02:23:56;;;;;;;16.90;9.25;;;;;;;;;;5001074;28;20050;-82
2024/03/22 02:26:21;;;;;;;17.02;9.88;;;;;;;;;;5017756;28;20478;-82
2024/03/22 02:28:47;;;;;;;21.60;10.73;;;;;;;;;;5014293;28;20067;-82
2024/03/22 02:31:12;;;;;;;22.65;9.95;;;;;;;;;;5016683;28;20079;-84
2024/03/22 02:33:38;;;;;;;17.85;8.82;;;;;;;;;;5015689;28;20053;-86
2024/03/22 02:36:04;;;;;;;23.67;11.45;;;;;;;;;;4999322;28;20560;-87
2024/03/22 02:38:30;;;;;;;19.13;10.07;;;;;;;;;;5000185;28;20471;-86
2024/03/22 02:40:57;;;;;;;19.80;10.38;;;;;;;;;;5015553;28;20184;-86
2024/03/22 02:43:23;;;;;;;16.88;9.85;;;;;;;;;;5015731;28;20054;-86
2024/03/22 02:45:49;;;;;;;19.85;11.07;;;;;;;;;;4998539;28;20108;-86
2024/03/22 02:48:14;;;;;;;16.50;8.93;;;;;;;;;;5021139;28;20053;-86
2024/03/22 02:50:40;;;;;;;13.88;8.82;;;;;;;;;;5016378;28;20500;-86
2024/03/22 02:53:06;;;;;;;17.80;10.02;;;;;;;;;;5014417;28;20061;-86
2024/03/22 02:55:38;;;;;;;14.40;8.45;;;;;;;;;;5014853;28;20057;-87
2024/03/22 02:58:05;;;;;;;14.82;9.20;;;;;;;;;;5019142;28;20468;-86
2024/03/22 03:00:30;;;;;;;14.05;8.88;;;;;;;;;;5016283;28;20055;-86
2024/03/22 03:02:56;;;;;;;13.48;8.55;;;;;;;;;;4995919;28;20053;-85
2024/03/22 03:05:23;;;;;;;12.77;8.90;;;;;;;;;;5013612;28;20542;-85
2024/03/22 03:07:49;;;;;;;12.48;8.75;;;;;;;;;;5007863;28;20049;-82
2024/03/22 03:10:15;;;;;;;11.45;7.88;;;;;;;;;;5032661;28;20060;-86
2024/03/22 03:12:40;;;;;;;15.60;9.57;;;;;;;;;;5014776;28;20068;-86
2024/03/22 03:15:06;;;;;;;15.13;8.15;;;;;;;;;;5011566;28;20089;-85
2024/03/22 03:17:31;;;;;;;12.88;9.02;;;;;;;;;;5014773;28;20431;-86
2024/03/22 03:19:57;;;;;;;13.90;8.13;;;;;;;;;;5032220;28;20053;-86
2024/03/22 03:22:22;;;;;;;13.05;9.23;;;;;;;;;;5031254;28;20053;-85
2024/03/22 03:24:48;;;;;;;15.35;9.27;;;;;;;;;;5008837;28;20054;-86
2024/03/22 03:27:13;;;;;;;13.82;8.98;;;;;;;;;;5011917;28;20191;-85
2024/03/22 03:29:39;;;;;;;13.27;8.73;;;;;;;;;;4998423;28;20531;-85
2024/03/22 03:32:05;;;;;;;13.80;9.68;;;;;;;;;;5011042;28;20085;-87
2024/03/22 03:34:30;;;;;;;14.10;9.98;;;;;;;;;;5014479;28;20075;-86
2024/03/22 03:36:56;;;;;;;12.23;8.90;;;;;;;;;;4997511;28;20056;-82
2024/03/22 03:39:21;;;;;;;14.57;8.40;;;;;;;;;;5015719;28;20049;-82
2024/03/22 03:41:47;;;;;;;16.05;10.75;;;;;;;;;;5013897;28;20100;-82
2024/03/22 03:44:12;;;;;;;14.68;9.07;;;;;;;;;;4997776;28;20053;-82
2024/03/22 03:46:38;;;;;;;13.52;9.45;;;;;;;;;;5014550;28;20058;-82
2024/03/22 03:49:03;;;;;;;12.57;8.60;;;;;;;;;;5024618;28;20037;-81
2024/03/22 03:51:29;;;;;;;16.10;8.65;;;;;;;;;;5028222;28;20052;-82
2024/03/22 03:53:54;;;;;;;21.35;10.23;;;;;;;;;;5029016;28;20052;-82
2024/03/22 03:56:20;;;;;;;20.08;10.10;;;;;;;;;;5014153;28;20064;-82
2024/03/22 03:58:46;;;;;;;20.70;11.05;;;;;;;;;;5010997;28;20061;-82
2024/03/22 04:01:11;;;;;;;20.77;10.88;;;;;;;;;;5010229;28;20050;-84
2024/03/22 04:03:37;;;;;;;17.58;11.43;;;;;;;;;;4999644;28;20053;-83
2024/03/22 04:06:03;;;;;;;15.95;10.02;;;;;;;;;;5015661;28;20054;-83
2024/03/22 04:08:30;;;;;;;18.15;10.73;;;;;;;;;;5015508;28;20507;-83
2024/03/22 04:10:56;;;;;;;16.38;9.95;;;;;;;;;;5015438;28;20049;-84
2024/03/22 04:13:23;;;;;;;17.38;11.00;;;;;;;;;;4997202;28;20042;-83
2024/03/22 04:15:48;;;;;;;19.60;11.15;;;;;;;;;;5005624;28;20577;-82
2024/03/22 04:18:14;;;;;;;21.13;11.88;;;;;;;;;;4996320;28;20049;-81
2024/03/22 04:20:39;;;;;;;20.02;11.35;;;;;;;;;;4999800;28;20080;-82
2024/03/22 04:23:05;;;;;;;19.73;10.65;;;;;;;;;;4996463;28;20489;-81
2024/03/22 04:25:30;;;;;;;19.00;10.82;;;;;;;;;;5015499;28;20065;-81
2024/03/22 04:27:56;;;;;;;23.33;10.80;;;;;;;;;;5016174;28;20423;-81
2024/03/22 04:30:21;;;;;;;18.35;10.60;;;;;;;;;;5013986;28;20060;-82
2024/03/22 04:32:47;;;;;;;15.30;9.43;;;;;;;;;;5013210;28;20054;-83
2024/03/22 04:35:13;;;;;;;13.80;8.73;;;;;;;;;;5031096;28;20121;-83
2024/03/22 04:37:38;;;;;;;13.77;9.35;;;;;;;;;;5019906;28;20618;-83
2024/03/22 04:40:04;;;;;;;14.93;9.23;;;;;;;;;;5001211;28;20053;-83
2024/03/22 04:42:30;;;;;;;13.95;8.98;;;;;;;;;;5019154;28;20115;-83
2024/03/22 04:44:55;;;;;;;13.93;9.15;;;;;;;;;;5018936;28;20068;-83
2024/03/22 04:47:21;;;;;;;15.52;8.63;;;;;;;;;;5018485;28;20069;-83
2024/03/22 04:49:47;;;;;;;16.35;8.45;;;;;;;;;;5020155;28;20118;-83
2024/03/22 04:52:12;;;;;;;15.85;8.98;;;;;;;;;;5025781;28;20053;-83
2024/03/22 04:54:38;;;;;;;12.70;8.68;;;;;;;;;;5022967;28;20050;-81
2024/03/22 04:57:03;;;;;;;14.85;8.65;;;;;;;;;;5005159;28;20046;-80
2024/03/22 04:59:29;;;;;;;12.15;8.75;;;;;;;;;;5037201;28;20041;-80
2024/03/22 05:01:55;;;;;;;14.13;9.82;;;;;;;;;;5017175;28;20069;-80
2024/03/22 05:04:20;;;;;;;11.00;8.18;;;;;;;;;;5019574;28;20113;-81
2024/03/22 05:06:46;;;;;;;13.32;8.65;;;;;;;;;;5020551;28;20085;-80
2024/03/22 05:09:11;;;;;;;17.90;9.50;;;;;;;;;;5024410;28;20048;-80
2024/03/22 05:11:37;;;;;;;12.20;7.95;;;;;;;;;;5001390;28;20064;-81
2024/03/22 05:14:03;;;;;;;13.80;8.40;;;;;;;;;;5004410;28;20056;-80
2024/03/22 05:16:28;;;;;;;14.63;8.27;;;;;;;;;;5004746;28;20053;-80
2024/03/22 05:18:54;;;;;;;11.77;8.02;;;;;;;;;;5020717;28;20105;-79
2024/03/22 05:21:20;;;;;;;12.32;7.95;;;;;;;;;;5031670;28;20197;-80
2024/03/22 05:23:45;;;;;;;14.20;8.48;;;;;;;;;;5022572;28;20065;-82
2024/03/22 05:26:11;;;;;;;16.38;8.10;;;;;;;;;;5023568;28;20049;-81
2024/03/22 05:28:37;;;;;;;14.57;8.63;;;;;;;;;;5021237;28;20053;-80
2024/03/22 05:31:03;;;;;;;14.70;8.95;;;;;;;;;;5023297;28;20074;-83
2024/03/22 05:33:29;;;;;;;13.68;7.97;;;;;;;;;;5024439;28;20743;-77
2024/03/22 05:35:55;;;;;;;13.15;7.97;;;;;;;;;;5021563;28;20128;-78
2024/03/22 05:38:20;;;;;;;14.23;8.98;;;;;;;;;;5015110;28;20292;-78
2024/03/22 05:40:47;;;;;;;16.30;8.25;;;;;;;;;;5035723;28;20085;-80
2024/03/22 05:43:13;;;;;;;14.15;7.85;;;;;;;;;;5035703;28;20099;-80
2024/03/22 05:45:39;;;;;;;12.27;8.40;;;;;;;;;;5002686;28;20057;-84
2024/03/22 05:48:04;;;;;;;12.73;7.85;;;;;;;;;;5017602;28;20049;-87
2024/03/22 05:50:30;;;;;;;13.00;7.60;;;;;;;;;;5000966;28;20057;-86
2024/03/22 05:52:55;;;;;;;13.88;8.80;;;;;;;;;;5033557;28;20539;-87
2024/03/22 05:55:21;;;;;;;11.50;8.23;;;;;;;;;;5016780;28;20056;-86
2024/03/22 05:57:47;;;;;;;15.10;8.43;;;;;;;;;;5013744;28;20486;-85
2024/03/22 06:00:13;;;;;;;13.43;7.78;;;;;;;;;;4997943;28;20042;-86
2024/03/22 06:02:39;;;;;;;10.85;7.88;;;;;;;;;;5013852;28;20061;-85
2024/03/22 06:05:05;;;;;;;13.75;7.63;;;;;;;;;;4992687;28;20054;-85
2024/03/22 06:07:38;;;;;;;11.05;7.78;;;;;;;;;;5005052;28;20060;-82
2024/03/22 06:10:05;;;;;;;10.55;7.15;;;;;;;;;;5019867;28;20050;-82
2024/03/22 06:12:31;;;;;;;11.95;7.85;;;;;;;;;;5005182;28;20060;-81
2024/03/22 06:14:56;;;;;;;10.40;7.50;;;;;;;;;;5007035;28;20053;-84
2024/03/22 06:17:22;;;;;;;13.77;7.45;;;;;;;;;;5021877;28;20052;-84
2024/03/22 06:19:47;;;;;;;12.10;7.75;;;;;;;;;;5018199;28;20106;-81
2024/03/22 06:22:13;;;;;;;11.85;7.43;;;;;;;;;;5021661;28;20055;-81
2024/03/22 06:24:39;;;;;;;12.25;7.82;;;;;;;;;;5020258;28;20058;-83
2024/03/22 06:27:05;;;;;;;14.57;8.13;;;;;;;;;;5022887;28;20057;-84
2024/03/22 06:29:31;;;;;;;12.30;7.97;;;;;;;;;;5035643;28;20065;-84
2024/03/22 06:31:56;;;;;;;15.18;8.63;;;;;;;;;;5038853;28;20049;-82
2024/03/22 06:34:22;;;;;;;13.32;8.32;;;;;;;;;;5019879;28;20117;-84
2024/03/22 06:36:47;;;;;;;18.05;8.52;;;;;;;;;;5001201;28;20053;-84
2024/03/22 06:39:14;;;;;;;11.18;7.80;;;;;;;;;;5016920;28;20085;-89
2024/03/22 06:41:40;;;;;;;15.35;8.88;;;;;;;;;;5010156;28;20057;-85
2024/03/22 06:44:05;;;;;;;13.50;7.57;;;;;;;;;;5031692;28;20151;-85
2024/03/22 06:46:31;;;;;;;15.07;9.02;;;;;;;;;;5008691;28;20091;-85
2024/03/22 06:48:57;;;;;;;11.38;8.20;;;;;;;;;;5019324;28;20053;-80
2024/03/22 06:51:23;;;;;;;11.15;8.07;;;;;;;;;;5036817;28;20049;-85
2024/03/22 06:53:48;;;;;;;16.38;8.40;;;;;;;;;;5005078;28;20083;-78
2024/03/22 06:56:14;;;;;;;13.30;7.55;;;;;;;;;;5019810;28;20061;-82
2024/03/22 06:58:39;;;;;;;22.52;9.20;;;;;;;;;;5015938;28;20049;-78
2024/03/22 07:01:05;;;;;;;21.38;8.65;;;;;;;;;;5023678;28;20061;-77
2024/03/22 07:03:31;;;;;;;17.73;7.85;;;;;;;;;;5003334;28;20050;-75
2024/03/22 07:05:57;;;;;;;12.63;7.85;;;;;;;;;;5017701;28;20136;-78
2024/03/22 07:08:23;;;;;;;12.75;7.60;;;;;;;;;;5014082;28;20078;-77
2024/03/22 07:10:49;;;;;;;9.32;7.43;;;;;;;;;;5016942;28;20140;-77
2024/03/22 07:13:14;;;;;;;12.45;8.27;;;;;;;;;;5014768;28;20042;-79
2024/03/22 07:15:40;;;;;;;9.85;7.35;;;;;;;;;;5027432;28;20042;-79
2024/03/22 07:18:06;;;;;;;13.35;8.65;;;;;;;;;;5022019;28;20055;-79
2024/03/22 07:20:31;;;;;;;11.68;7.05;;;;;;;;;;5023593;28;20069;-78
2024/03/22 07:22:57;;;;;;;12.90;8.05;;;;;;;;;;5033812;28;20060;-80
2024/03/22 07:25:22;;;;;;;16.55;8.75;;;;;;;;;;5016077;28;20081;-77
2024/03/22 07:27:49;;;;;;;12.05;9.10;;;;;;;;;;5011716;28;20076;-77
2024/03/22 07:30:14;;;;;;;15.60;8.15;;;;;;;;;;5012886;28;20741;-76
2024/03/22 07:32:40;;;;;;;15.80;9.10;;;;;;;;;;5029256;28;20053;-78
2024/03/22 07:35:07;;;;;;;18.65;8.88;;;;;;;;;;4994898;28;20104;-77
2024/03/22 07:37:32;;;;;;;13.65;8.70;;;;;;;;;;4995864;28;20759;-77
2024/03/22 07:39:58;;;;;;;16.50;8.68;;;;;;;;;;4996929;28;20046;-78
2024/03/22 07:42:24;;;;;;;14.52;8.60;;;;;;;;;;5012820;28;20447;-76
2024/03/22 07:44:49;;;;;;;22.23;8.57;;;;;;;;;;5014229;28;20049;-78
2024/03/22 07:47:15;;;;;;;14.77;8.35;;;;;;;;;;5013155;28;20076;-81
2024/03/22 07:49:40;;;;;;;16.50;8.32;;;;;;;;;;4995718;28;20552;-81
2024/03/22 07:52:06;;;;;;;10.15;7.65;;;;;;;;;;5012550;28;20049;-80
2024/03/22 07:54:31;;;;;;;13.45;8.90;;;;;;;;;;4998780;28;20053;-83
2024/03/22 07:56:57;;;;;;;11.35;8.68;;;;;;;;;;5014555;28;20056;-81
2024/03/22 07:59:23;;;;;;;10.75;7.78;;;;;;;;;;5014710;28;20060;-83
2024/03/22 08:01:48;;;;;;;13.50;7.80;;;;;;;;;;4989621;28;20049;-80
2024/03/22 08:04:14;;;;;;;11.95;7.88;;;;;;;;;;5028633;28;20084;-81
2024/03/22 08:06:40;;;;;;;10.63;7.90;;;;;;;;;;5001618;28;20061;-79
2024/03/22 08:09:05;;;;;;;12.00;7.60;;;;;;;;;;5014468;28;20099;-81
2024/03/22 08:11:31;;;;;;;12.05;7.80;;;;;;;;;;5032861;28;20616;-81
2024/03/22 08:14:02;;;;;;;12.68;8.20;;;;;;;;;;5011092;28;20076;-83
2024/03/22 08:16:28;;;;;;;15.88;9.63;;;;;;;;;;4999277;28;20053;-82
2024/03/22 08:18:53;;;;;;;14.45;8.85;;;;;;;;;;4996208;28;20050;-80
2024/03/22 08:21:19;;;;;;;14.07;8.73;;;;;;;;;;5003811;28;20057;-79
2024/03/22 08:23:44;;;;;;;11.15;7.38;;;;;;;;;;5009498;28;20053;-79
2024/03/22 08:26:10;;;;;;;10.60;7.45;;;;;;;;;;5030357;28;20945;-80
2024/03/22 08:28:36;;;;;;;9.52;7.15;;;;;;;;;;5016099;28;20061;-81
2024/03/22 08:31:05;;;;;;;12.13;7.43;;;;;;;;;;5000309;28;20768;-77
2024/03/22 08:33:30;;;;;;;8.25;6.00;;;;;;;;;;5013327;28;20060;-81
2024/03/22 08:35:56;;;;;;;9.70;6.80;;;;;;;;;;5022625;28;21208;-77
2024/03/22 08:38:22;;;;;;;13.10;7.22;;;;;;;;;;5005254;28;20049;-78
2024/03/22 08:40:48;;;;;;;18.25;6.78;;;;;;;;;;5009045;28;20623;-77
2024/03/22 08:43:14;;;;;;;9.70;6.70;;;;;;;;;;5008959;28;20097;-78
2024/03/22 08:45:39;;;;;;;15.75;7.60;;;;;;;;;;5012050;28;20474;-79
2024/03/22 08:48:05;;;;;;;11.02;6.97;;;;;;;;;;5025947;28;20061;-77
2024/03/22 08:50:31;;;;;;;8.63;6.30;;;;;;;;;;4990654;28;20522;-77
2024/03/22 08:52:56;;;;;;;8.68;6.22;;;;;;;;;;5004953;28;20057;-77
2024/03/22 08:55:22;;;;;;;9.73;6.53;;;;;;;;;;5007064;28;20124;-76
2024/03/22 08:57:47;;;;;;;8.85;6.65;;;;;;;;;;4989033;28;20058;-76
2024/03/22 09:00:13;;;;;;;9.00;6.22;;;;;;;;;;5000436;28;20053;-76
2024/03/22 09:02:39;;;;;;;10.77;7.50;;;;;;;;;;5003192;28;20100;-80
2024/03/22 09:05:05;;;;;;;10.40;6.15;;;;;;;;;;5034002;28;20064;-81
2024/03/22 09:07:30;;;;;;;7.85;6.18;;;;;;;;;;5035997;28;20060;-86
2024/03/22 09:09:56;;;;;;;8.70;6.90;;;;;;;;;;5002728;28;20483;-78
2024/03/22 09:12:22;;;;;;;10.43;6.30;;;;;;;;;;5037034;28;20057;-80
2024/03/22 09:14:47;;;;;;;9.05;6.70;;;;;;;;;;5029115;28;20073;-80
2024/03/22 09:17:13;;;;;;;11.50;6.80;;;;;;;;;;5031615;28;20042;-83
2024/03/22 09:19:38;;;;;;;8.77;6.47;;;;;;;;;;5014070;28;20041;-81
2024/03/22 09:22:04;;;;;;;9.70;6.88;;;;;;;;;;5031969;28;20057;-80
2024/03/22 09:24:29;;;;;;;10.93;6.63;;;;;;;;;;5014516;28;20049;-79
2024/03/22 09:26:55;;;;;;;12.35;7.10;;;;;;;;;;5011695;28;20057;-80
2024/03/22 09:29:20;;;;;;;11.18;6.18;;;;;;;;;;5031536;28;20114;-79
2024/03/22 09:31:46;;;;;;;9.65;6.72;;;;;;;;;;5041150;28;20053;-79
2024/03/22 09:34:12;;;;;;;9.25;6.53;;;;;;;;;;5022480;28;20054;-81
2024/03/22 09:36:38;;;;;;;14.18;7.57;;;;;;;;;;5024575;28;20088;-80
2024/03/22 09:39:04;;;;;;;7.65;6.25;;;;;;;;;;5006625;28;20045;-79
2024/03/22 09:41:30;;;;;;;9.80;6.70;;;;;;;;;;5025509;28;20053;-80
2024/03/22 09:43:57;;;;;;;14.85;6.55;;;;;;;;;;4998560;28;20061;-80
2024/03/22 09:46:23;;;;;;;11.32;7.18;;;;;;;;;;5019641;28;20556;-79
2024/03/22 09:48:49;;;;;;;8.05;6.70;;;;;;;;;;5023854;28;20045;-76
2024/03/22 09:51:17;;;;;;;8.32;6.85;;;;;;;;;;5017277;28;20045;-80
2024/03/22 09:53:48;;;;;;;10.65;6.72;;;;;;;;;;5030955;28;20084;-79
2024/03/22 09:56:14;;;;;;;9.43;5.93;;;;;;;;;;5014849;28;20026;-78
2024/03/22 09:58:40;;;;;;;10.57;6.05;;;;;;;;;;5026339;28;20080;-79
2024/03/22 10:01:06;;;;;;;9.73;6.28;;;;;;;;;;5031111;28;20046;-78
2024/03/22 10:03:31;;;;;;;11.80;6.60;;;;;;;;;;5025179;28;20267;-79
2024/03/22 10:05:57;;;;;;;9.60;5.40;;;;;;;;;;5043781;28;20113;-78
2024/03/22 10:08:23;;;;;;;8.05;5.57;;;;;;;;;;5014129;28;20057;-78
2024/03/22 10:10:49;;;;;;;9.63;5.95;;;;;;;;;;5030245;28;20049;-78
2024/03/22 10:13:14;;;;;;;8.10;5.70;;;;;;;;;;5029242;28;20054;-78
2024/03/22 10:15:40;;;;;;;6.07;4.75;;;;;;;;;;5044913;28;20053;-79
2024/03/22 10:18:05;;;;;;;8.60;5.90;;;;;;;;;;5029193;28;20065;-78
2024/03/22 10:20:33;;;;;;;9.35;4.65;;;;;;;;;;5028094;28;20064;-78
2024/03/22 10:22:59;;;;;;;7.90;5.40;;;;;;;;;;5028355;28;20046;-78
2024/03/22 10:25:27;;;;;;;8.50;4.93;;;;;;;;;;5024739;28;20058;-78
2024/03/22 10:27:56;;;;;;;7.47;4.82;;;;;;;;;;5023970;28;20061;-79
2024/03/22 10:30:22;;;;;;;9.02;5.38;;;;;;;;;;5006235;28;20072;-79
2024/03/22 10:32:48;;;;;;;7.97;5.32;;;;;;;;;;5021645;28;20091;-79
2024/03/22 10:35:14;;;;;;;8.63;5.38;;;;;;;;;;5019665;28;20042;-78
2024/03/22 10:37:40;;;;;;;9.73;5.43;;;;;;;;;;5017294;28;20056;-77
2024/03/22 10:40:11;;;;;;;8.45;5.57;;;;;;;;;;5032139;28;20084;-79
2024/03/22 10:42:38;;;;;;;7.95;5.38;;;;;;;;;;5023265;28;20053;-79
2024/03/22 10:45:04;;;;;;;7.45;5.07;;;;;;;;;;5009013;28;20054;-78
2024/03/22 10:47:31;;;;;;;8.63;4.75;;;;;;;;;;5018656;28;20056;-83
2024/03/22 10:50:06;;;;;;;10.18;5.90;;;;;;;;;;5018636;28;20057;-81
2024/03/22 10:52:33;;;;;;;10.07;6.63;;;;;;;;;;5015552;28;20065;-82
2024/03/22 10:54:58;;;;;;;10.80;5.85;;;;;;;;;;5018411;28;20056;-80
2024/03/22 10:57:24;;;;;;;8.27;5.28;;;;;;;;;;5034398;28;20515;-78
2024/03/22 10:59:50;;;;;;;7.50;5.05;;;;;;;;;;5029565;28;20053;-81
2024/03/22 11:02:15;;;;;;;5.90;4.70;;;;;;;;;;4995344;28;20061;-78
2024/03/22 11:04:41;;;;;;;7.55;5.35;;;;;;;;;;5011654;28;20061;-78
2024/03/22 11:07:08;;;;;;;7.22;5.00;;;;;;;;;;5023917;28;20053;-79
2024/03/22 11:09:33;;;;;;;7.93;5.50;;;;;;;;;;5019008;28;20107;-79
2024/03/22 11:12:00;;;;;;;6.93;4.90;;;;;;;;;;5016006;28;20046;-78
2024/03/22 11:14:26;;;;;;;7.72;4.97;;;;;;;;;;5003999;28;20050;-78
2024/03/22 11:16:52;;;;;;;6.20;5.03;;;;;;;;;;5006032;28;20072;-78
2024/03/22 11:19:18;;;;;;;7.05;4.70;;;;;;;;;;5003770;28;20046;-79
2024/03/22 11:21:44;;;;;;;10.35;5.10;;;;;;;;;;5024635;28;20052;-78
2024/03/22 11:24:10;;;;;;;8.55;4.03;;;;;;;;;;5020302;28;20088;-78
2024/03/22 11:26:36;;;;;;;7.43;4.15;;;;;;;;;;5018037;28;20471;-78
2024/03/22 11:29:02;;;;;;;7.20;5.30;;;;;;;;;;4998762;28;20050;-77
2024/03/22 11:31:27;;;;;;;7.43;4.50;;;;;;;;;;5011910;28;20057;-77
2024/03/22 11:33:54;;;;;;;6.85;4.00;;;;;;;;;;5009218;28;20058;-82
2024/03/22 11:36:20;;;;;;;6.78;4.65;;;;;;;;;;4998409;28;22037;-81
2024/03/22 11:38:48;;;;;;;6.35;4.65;;;;;;;;;;4995179;28;20058;-79
2024/03/22 11:41:16;;;;;;;5.90;4.70;;;;;;;;;;4992848;28;20053;-81
2024/03/22 11:43:42;;;;;;;6.00;4.15;;;;;;;;;;5018409;28;20056;-81
2024/03/22 11:46:07;;;;;;;6.60;4.10;;;;;;;;;;5000448;28;20057;-81
2024/03/22 11:48:34;;;;;;;8.00;3.83;;;;;;;;;;5017964;28;20634;-80
2024/03/22 11:51:01;;;;;;;7.53;3.78;;;;;;;;;;5002811;28;20053;-81
2024/03/22 11:53:26;;;;;;;10.98;3.70;;;;;;;;;;5013958;28;20053;-81
2024/03/22 11:55:52;;;;;;;5.85;3.78;;;;;;;;;;5002771;28;20045;-81
2024/03/22 11:58:18;;;;;;;5.90;3.28;;;;;;;;;;5019480;28;20463;-81
2024/03/22 12:00:44;;;;;;;4.70;3.80;;;;;;;;;;5017175;28;20049;-81
2024/03/22 12:03:10;;;;;;;4.57;3.38;;;;;;;;;;5011072;28;20053;-80
2024/03/22 12:05:35;;;;;;;6.53;3.20;;;;;;;;;;5009428;28;20053;-84
2024/03/22 12:08:02;;;;;;;8.27;4.45;;;;;;;;;;5005046;28;20081;-80
2024/03/22 12:10:27;;;;;;;6.00;3.45;;;;;;;;;;5017149;28;20053;-81
2024/03/22 12:12:53;;;;;;;3.75;3.10;;;;;;;;;;5004782;28;20053;-81
2024/03/22 12:15:25;;;;;;;6.07;3.10;;;;;;;;;;5024918;28;20041;-86
2024/03/22 12:17:51;;;;;;;2.40;2.20;;;;;;;;;;5008329;28;20061;-84
2024/03/22 12:20:21;;;;;;;5.20;3.33;;;;;;;;;;5007068;28;20042;-82
2024/03/22 12:22:50;;;;;;;5.10;3.03;;;;;;;;;;5024921;28;20045;-81
2024/03/22 12:25:16;;;;;;;3.53;2.45;;;;;;;;;;5025017;28;20058;-79
2024/03/22 12:27:43;;;;;;;4.45;2.70;;;;;;;;;;4998609;28;20053;-76
2024/03/22 12:30:09;;;;;;;6.78;2.35;;;;;;;;;;5044096;28;20030;-78
2024/03/22 12:32:35;;;;;;;3.78;2.30;;;;;;;;;;5046826;28;20021;-78
2024/03/22 12:35:01;;;;;;;7.72;3.45;;;;;;;;;;5028837;28;20105;-78
2024/03/22 12:37:30;;;;;;;3.95;2.08;;;;;;;;;;5039322;28;20049;-85
2024/03/22 12:39:56;;;;;;;3.17;2.20;;;;;;;;;;5026052;28;20053;-78
2024/03/22 12:42:22;;;;;;;3.70;2.30;;;;;;;;;;5012743;28;20135;-81
2024/03/22 12:44:48;;;;;;;5.57;2.53;;;;;;;;;;5012710;28;20049;-80
2024/03/22 12:47:14;;;;;;;7.10;2.67;;;;;;;;;;5026074;28;20054;-81
2024/03/22 12:49:39;;;;;;;4.22;2.35;;;;;;;;;;5015110;28;20046;-81
2024/03/22 12:52:05;;;;;;;2.97;2.33;;;;;;;;;;5007930;28;20461;-80
2024/03/22 12:54:31;;;;;;;2.92;1.90;;;;;;;;;;5022122;28;20071;-81
2024/03/22 12:56:57;;;;;;;6.03;2.90;;;;;;;;;;5011094;28;20054;-81
2024/03/22 12:59:22;;;;;;;6.03;2.70;;;;;;;;;;5004942;28;20092;-81
2024/03/22 13:01:48;;;;;;;4.47;2.67;;;;;;;;;;5022963;28;20053;-81
2024/03/22 13:04:14;;;;;;;8.02;3.15;;;;;;;;;;4996225;28;20057;-80
2024/03/22 13:06:40;;;;;;;4.85;2.83;;;;;;;;;;4992799;28;20080;-84
2024/03/22 13:09:05;;;;;;;4.72;2.95;;;;;;;;;;5009690;28;20062;-82
2024/03/22 13:11:34;;;;;;;4.72;2.72;;;;;;;;;;5000604;28;20054;-82
2024/03/22 13:14:00;;;;;;;4.13;2.25;;;;;;;;;;5021090;28;20056;-82
2024/03/22 13:16:26;;;;;;;3.78;2.72;;;;;;;;;;5025226;28;20435;-82
2024/03/22 13:18:51;;;;;;;5.70;2.90;;;;;;;;;;5026783;28;20069;-82
2024/03/22 13:21:17;;;;;;;3.28;2.75;;;;;;;;;;5023431;28;20049;-82
2024/03/22 13:23:43;;;;;;;3.22;2.50;;;;;;;;;;5019818;28;20081;-82
2024/03/22 13:26:08;;;;;;;2.88;2.45;;;;;;;;;;5027438;28;20124;-82
2024/03/22 13:28:34;;;;;;;8.18;2.83;;;;;;;;;;5019330;28;20061;-82
2024/03/22 13:31:03;;;;;;;4.72;2.50;;;;;;;;;;5004956;28;20474;-82
2024/03/22 13:33:29;;;;;;;4.90;2.60;;;;;;;;;;5020980;28;20057;-82
2024/03/22 13:35:55;;;;;;;4.75;2.50;;;;;;;;;;5034212;28;20032;-82
2024/03/22 13:38:20;;;;;;;5.25;2.38;;;;;;;;;;5024119;28;20030;-89
2024/03/22 13:40:52;;;;;;;5.20;2.47;;;;;;;;;;5053890;28;20049;-90
2024/03/22 13:43:18;;;;;;;4.93;2.45;;;;;;;;;;5000331;28;20052;-89
2024/03/22 13:45:44;;;;;;;6.57;3.22;;;;;;;;;;5022499;28;20057;-89
2024/03/22 13:48:10;;;;;;;3.03;2.20;;;;;;;;;;5014447;28;20061;-90
2024/03/22 13:50:36;;;;;;;3.40;2.55;;;;;;;;;;5011166;28;20088;-90
2024/03/22 13:53:02;;;;;;;3.22;2.38;;;;;;;;;;5014657;28;20120;-89
2024/03/22 13:55:27;;;;;;;6.55;2.45;;;;;;;;;;5006842;28;20049;-90
2024/03/22 13:57:53;;;;;;;5.50;2.88;;;;;;;;;;5012817;28;20045;-89
2024/03/22 14:00:18;;;;;;;4.57;2.90;;;;;;;;;;4990086;28;20407;-87
2024/03/22 14:02:45;;;;;;;4.05;2.88;;;;;;;;;;5010868;28;20059;-87
2024/03/22 14:05:11;;;;;;;4.63;2.50;;;;;;;;;;5006606;28;20058;-87
2024/03/22 14:07:40;;;;;;;4.05;2.63;;;;;;;;;;5005963;28;20423;-86
2024/03/22 14:10:06;;;;;;;7.22;2.95;;;;;;;;;;5009161;28;20062;-88
2024/03/22 14:12:31;;;;;;;9.98;2.88;;;;;;;;;;5012220;28;20061;-88
2024/03/22 14:14:58;;;;;;;3.10;2.47;;;;;;;;;;5017465;28;20096;-84
2024/03/22 14:17:24;;;;;;;4.03;2.97;;;;;;;;;;5012034;28;20046;-84
2024/03/22 14:19:49;;;;;;;8.55;2.92;;;;;;;;;;5012047;28;20060;-82
2024/03/22 14:22:15;;;;;;;5.15;2.72;;;;;;;;;;5015414;28;20052;-88
2024/03/22 14:24:40;;;;;;;4.32;2.60;;;;;;;;;;5009149;28;20057;-88